Latest Weather Observations for Point Fawcett

IDD60801

Issued at 5:31 pm CST Tuesday 28 July 2015 (issued every 30 minutes, with the page automatically refreshed every 10 minutes)

About weather observations | Map of weather stations | Latest weather observations for NT | Other Formats
Station Details ID: 200731 Name: POINT FAWCETT Lat: -11.76 Lon: 130.03 Height: 6.5 m
Data from the previous 72 hours. | See also: Recent months at Point Fawcett
Date/Time
CST
Temp
°C
App
Temp
°C
Dew
Point
Rel
Hum
%
Delta-T
°C
Wind Press
QNH
hPa
Press
MSL
hPa
Rain
since 9 am
mm
Dir
 
Spd
km/h
Gust
km/h
Spd
kts
Gust
kts
28/05:30pm 29.3 28.3 12.3 35 9.9 SE 9 15 5 8 1014.7 - 0.0
28/05:00pm 29.3 27.9 12.3 35 9.9 SE 11 24 6 13 1014.6 - 0.0
28/04:30pm 29.7 27.9 12.2 34 10.2 E 13 20 7 11 1014.6 - 0.0
28/04:00pm 30.0 28.8 12.9 35 10.1 ESE 11 24 6 13 1014.7 - 0.0
28/03:30pm 29.5 28.2 13.7 38 9.5 SE 13 20 7 11 1014.8 - 0.0
28/03:00pm 30.0 28.3 12.4 34 10.3 SE 13 20 7 11 1015.1 1015.1 0.0
28/02:30pm 30.1 28.1 11.6 32 10.7 ESE 13 22 7 12 1015.4 - 0.0
28/02:00pm 29.5 26.5 10.6 31 10.8 ESE 17 30 9 16 1015.9 - 0.0
28/01:30pm 29.3 26.0 10.9 32 10.5 ESE 19 33 10 18 1016.4 - 0.0
28/01:00pm 29.2 25.7 10.8 32 10.5 ESE 20 35 11 19 1016.9 - 0.0
28/12:30pm 28.2 24.1 11.3 35 9.7 ESE 24 39 13 21 1017.2 - 0.0
28/12:00pm 28.5 25.8 11.6 35 9.7 SE 17 35 9 19 1017.4 1017.4 0.0
28/11:30am 27.6 23.9 12.8 40 8.7 SE 24 37 13 20 1017.5 - 0.0
28/11:00am 28.0 25.2 13.1 39 8.8 ESE 20 37 11 20 1017.7 - 0.0
28/10:30am 27.8 25.3 14.1 43 8.2 ESE 20 33 11 18 1017.7 - 0.0
28/10:00am 27.9 25.6 14.2 43 8.2 SE 19 33 10 18 1017.7 - 0.0
28/09:30am 27.1 24.4 13.4 42 8.1 ESE 20 32 11 17 1017.7 - 0.0
28/09:00am 26.7 24.3 14.5 47 7.3 ESE 20 33 11 18 1017.7 1017.7 0.0
28/08:30am 26.0 25.2 16.0 54 6.1 ESE 15 30 8 16 1017.5 - 0.0
28/08:00am 24.6 24.7 16.6 61 4.9 ESE 11 20 6 11 1017.3 - 0.0
28/07:30am 23.4 23.3 16.0 63 4.5 ESE 11 19 6 10 1017.1 - 0.0
28/07:00am 22.8 23.4 16.8 69 3.7 ESE 9 17 5 9 1016.8 - 0.0
28/06:30am 22.8 24.1 19.4 81 2.2 ESE 11 20 6 11 1016.6 - 0.0
28/06:00am 23.0 26.2 22.3 96 0.5 SE 9 13 5 7 1016.3 1016.3 0.0
28/05:30am 21.2 24.0 20.4 95 0.5 SSE 6 9 3 5 1016.1 - 0.0
28/05:00am 21.7 24.6 21.0 96 0.5 S 7 9 4 5 1015.9 - 0.0
28/04:30am 22.0 24.8 21.5 97 0.3 S 9 13 5 7 1015.7 - 0.0
28/04:00am 19.8 21.6 18.8 94 0.6 S 7 9 4 5 1015.6 - 0.0
28/03:30am 20.2 22.2 19.2 94 0.6 S 7 11 4 6 1015.6 - 0.0
28/03:00am 20.5 22.6 19.3 93 0.8 ESE 7 9 4 5 1015.7 1015.7 0.0
28/02:30am 20.6 22.7 19.4 93 0.8 SSE 7 9 4 5 1016.1 - 0.0
28/02:00am 20.9 23.1 19.6 92 0.8 SE 7 9 4 5 1016.3 - 0.0
28/01:30am 21.5 24.0 20.3 93 0.8 ESE 7 11 4 6 1016.5 - 0.0
28/01:00am 21.3 23.6 19.9 92 0.9 ESE 7 9 4 5 1016.7 - 0.0
28/12:30am 21.5 23.9 20.0 91 1.0 SE 7 7 4 4 1016.6 - 0.0
28/12:00am 22.0 24.5 20.3 90 1.1 ESE 7 9 4 5 1016.7 1016.7 0.0
 
Date/Time
CST
Temp
°C
App
Temp
°C
Dew
Point
Rel
Hum
%
Delta-T
°C
Wind Press
QNH
hPa
Press
MSL
hPa
Rain
since 9 am
mm
Dir
 
Spd
km/h
Gust
km/h
Spd
kts
Gust
kts
27/11:30pm 22.7 25.7 21.2 91 1.0 ESE 7 9 4 5 1016.7 - 0.0
27/11:00pm 22.7 25.7 21.2 91 1.0 ESE 7 11 4 6 1016.5 - 0.0
27/10:30pm 22.5 25.2 20.6 89 1.2 ESE 7 9 4 5 1016.2 - 0.0
27/10:00pm 23.1 26.1 21.2 89 1.2 ESE 7 9 4 5 1016.2 - 0.0
27/09:30pm 23.5 26.6 21.4 88 1.4 SE 7 9 4 5 1016.0 - 0.0
27/09:00pm 23.8 26.8 21.3 86 1.6 SE 7 7 4 4 1015.8 1015.8 0.0
27/08:30pm 24.8 28.2 21.7 83 2.1 SSE 6 9 3 5 1015.5 - 0.0
27/08:00pm 26.1 29.9 22.8 82 2.2 SSW 7 15 4 8 1015.1 - 0.0
27/07:30pm 26.6 30.2 23.1 81 2.4 WSW 9 15 5 8 1014.8 - 0.0
27/07:00pm 26.7 30.3 23.0 80 2.5 WSW 9 13 5 7 1014.4 - 0.0
27/06:30pm 27.1 30.0 23.1 79 2.7 WNW 13 15 7 8 1014.1 - 0.0
27/06:00pm 28.0 31.0 23.4 76 3.2 NW 13 19 7 10 1014.0 1014.0 0.0
27/05:30pm 29.0 31.2 23.2 71 4.0 N 17 22 9 12 1013.7 - 0.0
27/05:00pm 30.1 31.5 22.5 63 5.2 N 19 28 10 15 1013.5 - 0.0
27/04:30pm 33.2 33.3 17.4 39 10.1 E 13 26 7 14 1013.5 - 0.0
27/04:00pm 32.9 32.1 17.1 39 10.1 E 17 26 9 14 1013.5 - 0.0
27/03:30pm 33.8 34.4 18.7 40 9.9 E 13 24 7 13 1013.6 - 0.0
27/03:00pm 33.2 32.5 18.2 41 9.7 E 19 30 10 16 1013.8 1013.8 0.0
27/02:30pm 32.3 32.3 18.1 42 9.2 SE 15 28 8 15 1014.3 - 0.0
27/02:00pm 32.3 32.9 18.5 44 8.9 ESE 13 33 7 18 1014.9 - 0.0
27/01:30pm 32.3 33.2 19.2 46 8.6 SE 13 24 7 13 1015.2 - 0.0
27/01:00pm 31.7 33.2 19.7 49 7.9 SE 11 20 6 11 1015.7 - 0.0
27/12:30pm 31.5 32.9 20.4 51 7.4 SE 13 20 7 11 1016.1 - 0.0
27/12:00pm 30.5 32.1 20.7 55 6.5 S 13 24 7 13 1016.5 1016.5 0.0
27/11:30am 30.0 31.4 21.1 59 5.9 SE 15 24 8 13 1017.0 - 0.0
27/11:00am 29.1 30.4 20.8 61 5.5 S 15 24 8 13 1017.2 - 0.0
27/10:30am 29.1 31.5 21.6 64 5.0 SSE 11 19 6 10 1017.5 - 0.0
27/10:00am 28.7 31.1 22.2 68 4.4 SSE 13 20 7 11 1017.4 - 0.0
27/09:30am 27.7 30.2 22.4 73 3.6 S 13 22 7 12 1017.4 - 0.0
27/09:00am 26.9 30.7 23.4 81 2.4 S 9 15 5 8 1017.5 1017.5 0.0
27/08:30am 26.0 30.9 24.4 91 1.1 SSE 6 9 3 5 1017.3 - 0.0
27/08:00am 22.9 26.4 21.9 94 0.7 ESE 6 7 3 4 1017.1 - 0.0
27/07:30am 22.4 25.7 21.4 94 0.7 ESE 6 7 3 4 1016.7 - 0.0
27/07:00am 22.4 25.6 21.2 93 0.8 S 6 7 3 4 1016.3 - 0.0
27/06:30am 22.4 25.5 21.0 92 0.9 SSE 6 7 3 4 1016.2 - 0.0
27/06:00am 22.6 25.7 21.1 91 1.0 SSE 6 7 3 4 1016.2 1016.2 0.0
27/05:30am 23.1 26.3 21.7 92 0.9 S 7 9 4 5 1016.0 - 0.0
27/05:00am 22.9 26.0 21.4 91 1.0 SSE 7 9 4 5 1016.0 - 0.0
27/04:30am 23.0 26.2 21.3 90 1.1 SSE 6 7 3 4 1016.0 - 0.0
27/04:00am 23.0 26.1 21.1 89 1.2 SSE 6 7 3 4 1016.0 - 0.0
27/03:30am 23.2 26.3 21.1 88 1.4 SSE 6 7 3 4 1016.0 - 0.0
27/03:00am 23.6 26.8 21.3 87 1.5 S 6 7 3 4 1016.1 1016.1 0.0
27/02:30am 23.8 27.1 21.5 87 1.5 S 6 7 3 4 1016.3 - 0.0
27/02:00am 24.1 27.4 21.4 85 1.8 S 6 7 3 4 1016.5 - 0.0
27/01:30am 24.4 27.6 21.3 83 2.0 S 6 7 3 4 1016.8 - 0.0
27/01:00am 25.3 28.8 21.8 81 2.3 SW 6 9 3 5 1017.1 - 0.0
27/12:30am 26.1 29.8 22.6 81 2.4 WSW 7 11 4 6 1017.2 - 0.0
27/12:00am 26.2 29.6 22.7 81 2.4 W 9 13 5 7 1017.1 1017.1 0.0
 
Date/Time
CST
Temp
°C
App
Temp
°C
Dew
Point
Rel
Hum
%
Delta-T
°C
Wind Press
QNH
hPa
Press
MSL
hPa
Rain
since 9 am
mm
Dir
 
Spd
km/h
Gust
km/h
Spd
kts
Gust
kts
26/11:30pm 26.3 29.3 22.6 80 2.5 W 11 13 6 7 1017.2 - 0.0
26/11:00pm 26.4 29.4 22.7 80 2.5 WNW 11 15 6 8 1017.1 - 0.0
26/10:30pm 26.4 29.5 22.9 81 2.4 W 11 13 6 7 1017.1 - 0.0
26/10:00pm 26.4 29.0 22.7 80 2.5 WNW 13 17 7 9 1017.0 - 0.0
26/09:30pm 26.4 29.1 22.9 81 2.4 W 13 17 7 9 1017.0 - 0.0
26/09:00pm 26.2 28.7 22.5 80 2.5 W 13 17 7 9 1016.7 1016.7 0.0
26/08:30pm 26.2 28.7 22.5 80 2.5 NNW 13 19 7 10 1016.5 - 0.0
26/08:00pm 26.2 28.6 22.3 79 2.6 NNW 13 17 7 9 1016.3 - 0.0
26/07:30pm 26.3 28.7 22.2 78 2.8 NW 13 17 7 9 1016.0 - 0.0
26/07:00pm 26.5 28.9 22.3 78 2.8 NW 13 17 7 9 1015.5 - 0.0
26/06:30pm 27.1 28.9 21.8 73 3.5 NW 15 17 8 9 1015.1 - 0.0
26/06:00pm 28.2 29.5 21.7 68 4.4 WNW 17 20 9 11 1014.7 1014.7 0.0
26/05:30pm 30.7 33.7 21.2 57 6.4 N 7 11 4 6 1014.2 - 0.0
26/05:00pm 30.9 33.0 20.2 53 7.1 ENE 9 15 5 8 1014.1 - 0.0
26/04:30pm 31.2 32.5 19.2 48 7.8 SE 11 17 6 9 1014.1 - 0.0
26/04:00pm 31.3 33.8 20.3 52 7.3 SE 7 15 4 8 1014.0 - 0.0
26/03:30pm 31.3 33.7 20.9 54 7.0 SSE 9 17 5 9 1014.0 - 0.0
26/03:00pm 30.5 32.3 20.4 54 6.7 S 11 22 6 12 1014.1 1014.1 0.0
26/02:30pm 30.6 32.5 20.5 54 6.7 SSE 11 22 6 12 1014.3 - 0.0
26/02:00pm 31.3 33.0 20.9 54 7.0 SSE 13 28 7 15 1014.6 - 0.0
26/01:30pm 31.8 32.7 20.1 50 7.7 SSE 15 26 8 14 1014.9 - 0.0
26/01:00pm 32.5 33.3 19.0 44 8.8 ESE 13 26 7 14 1015.1 - 0.0
26/12:30pm 32.5 33.3 19.0 44 8.8 E 13 20 7 11 1015.6 - 0.0
26/12:00pm 32.0 32.7 18.9 45 8.5 SE 13 22 7 12 1016.2 1016.2 0.0
26/11:30am 31.1 32.3 19.8 51 7.4 E 13 28 7 15 1016.5 - 0.0
26/11:00am 30.7 32.2 20.6 54 6.7 E 13 20 7 11 1016.8 - 0.0
26/10:30am 30.2 32.3 21.0 58 6.1 ESE 11 20 6 11 1017.0 - 0.0
26/10:00am 28.7 30.8 21.0 63 5.1 E 11 17 6 9 1017.1 - 0.0
26/09:30am 27.8 29.5 20.9 66 4.6 E 13 20 7 11 1017.0 - 0.0
26/09:00am 26.9 29.3 21.6 72 3.5 E 11 17 6 9 1017.3 1017.3 0.0
26/08:30am 24.9 27.9 22.6 87 1.5 E 11 15 6 8 1017.1 - 0.0
26/08:00am 21.8 24.8 21.3 97 0.3 ESE 7 9 4 5 1016.9 - 0.0
26/07:30am 20.4 22.6 19.7 96 0.4 ESE 7 11 4 6 1016.5 - 0.0
26/07:00am 20.0 22.0 19.2 95 0.5 SE 7 9 4 5 1016.3 - 0.0
26/06:30am 20.4 22.6 19.7 96 0.4 SE 7 9 4 5 1015.9 - 0.0
26/06:00am 19.9 21.9 19.1 95 0.5 ESE 7 9 4 5 1015.6 1015.6 0.0
26/05:30am 19.9 21.8 18.9 94 0.6 ESE 7 9 4 5 1015.6 - 0.0
26/05:00am 19.9 21.7 18.7 93 0.7 SE 7 7 4 4 1015.4 - 0.0
26/04:30am 20.4 22.4 19.2 93 0.8 SSE 7 7 4 4 1015.3 - 0.0
26/04:00am 20.9 23.1 19.6 92 0.8 SE 7 7 4 4 1015.4 - 0.0
26/03:30am 21.3 23.6 19.9 92 0.9 ESE 7 9 4 5 1015.4 - 0.0
26/03:00am 21.2 23.3 19.3 89 1.2 ESE 7 9 4 5 1015.6 1015.6 0.0
26/02:30am 21.8 24.0 19.7 88 1.3 ESE 7 9 4 5 1015.8 - 0.0
26/02:00am 22.7 26.8 20.8 89 1.2 CALM 0 0 0 0 1016.0 - 0.0
26/01:30am 22.8 26.3 21.1 90 1.1 S 4 6 2 3 1016.0 - 0.0
26/01:00am 22.3 25.1 20.4 89 1.2 SSE 6 7 3 4 1016.3 - 0.0
26/12:30am 22.6 25.6 20.9 90 1.1 SE 6 7 3 4 1016.5 - 0.0
26/12:00am 22.8 26.0 21.3 91 1.0 S 6 7 3 4 1016.6 1016.6 0.0
 
Date/Time
CST
Temp
°C
App
Temp
°C
Dew
Point
Rel
Hum
%
Delta-T
°C
Wind Press
QNH
hPa
Press
MSL
hPa
Rain
since 9 am
mm
Dir
 
Spd
km/h
Gust
km/h
Spd
kts
Gust
kts
25/11:30pm 22.2 25.3 21.0 93 0.8 S 6 6 3 3 1016.6 - 0.0
25/11:00pm 20.9 23.6 19.4 91 1.0 S 4 6 2 3 1016.8 - 0.0
25/10:30pm 20.9 23.1 19.2 90 1.1 S 6 7 3 4 1016.6 - 0.0
25/10:00pm 21.1 24.2 19.4 90 1.1 SSE 2 7 1 4 1016.6 - 0.0
25/09:30pm 21.3 23.4 19.0 87 1.5 SSE 6 6 3 3 1016.3 - 0.0
25/09:00pm 21.8 24.1 19.5 87 1.5 SSE 6 7 3 4 1016.0 1016.0 0.0
25/08:30pm 21.7 23.7 18.7 83 1.9 SE 6 6 3 3 1015.6 - 0.0
25/08:00pm 22.3 24.5 19.3 83 1.9 S 6 7 3 4 1015.1 - 0.0
25/07:30pm 22.9 25.1 19.1 79 2.4 S 6 7 3 4 1014.6 - 0.0
25/07:00pm 24.4 26.6 19.7 75 3.0 S 7 9 4 5 1014.2 - 0.0
25/06:30pm 26.3 29.4 20.2 69 4.0 ENE 4 9 2 5 1013.7 - 0.0
25/06:00pm 27.6 30.2 20.4 65 4.7 S 7 11 4 6 1013.0 1013.0 0.0

Other Formats:

Comma delimited format used in spreadsheet applications
http://www.bom.gov.au/fwo/IDD60801/IDD60801.94122.axf

JavaScript Object Notation format (JSON) in row-major order
http://www.bom.gov.au/fwo/IDD60801/IDD60801.94122.json